CheckWX is a tool to help pilots better visualize weather data.  It is not intended as a substitute for an official pre-flight weather briefing.

21:23:24 UTC

ETAR METAR
Ramstein Air Base Airport
Ramstein, Germany
Current

27 mins ago

ETAR 232056Z AUTO 00000KT 9999 CLR 11/09 A3003 RMK AO2 SLP171 T01050091 52004 $
Observed
May-23 @ 20:56 UTC
Visibility
10,000+ meters
Flight Rules
VFR
Cloud Levels
  • Clear skies
Temperature
11°C / 52°F
Dewpoint
C / 48°F
Humidity
88%
Altimeter
30.03" Hg
Pressure
1016.92 hPa
Previous

1 hour ago

ETAR 231957Z AUTO 00000KT 9999 CLR 13/09 A3002 RMK AO2 SLP167 T01250090 $
Observed
May-23 @ 19:57 UTC
Visibility
10,000+ meters
Flight Rules
VFR
Cloud Levels
  • Clear skies
Temperature
13°C / 55°F
Dewpoint
C / 48°F
Humidity
77%
Altimeter
30.02" Hg
Pressure
1016.62 hPa
Previous

2 hours ago

ETAR 231856Z AUTO 11003KT 9999 CLR 17/09 A3002 RMK AO2 SLP167 T01660085 $
Observed
May-23 @ 18:56 UTC
Wind
  • 110° at 3 KTS
Visibility
10,000+ meters
Flight Rules
VFR
Cloud Levels
  • Clear skies
Temperature
17°C / 63°F
Dewpoint
C / 48°F
Humidity
59%
Altimeter
30.02" Hg
Pressure
1016.62 hPa